Fontana, California
Current Conditions -  °F | °C
As of 7:53 PM on Saturday 22 Nov 2014 (Local Time) from KONT Reporting Station
Broken Clouds Broken Clouds  
Wind Chill: 61°   Ceiling: 15000
Heat Index: 61°   Visibility: 10mi
Dew Point: 54°   Wind: 7mph
Humidity: 78%   Direction: 240°WSW
Pressure: 30.03"   Gusts: NA
Location:  34.1°N, 117.43°W
Report Text: KONT 230353Z 24006KT 10SM BKN150 16/12 A3003 RMK AO2 SLP164 T01610122
Loading
Personal Weather Stations






























Interactive Weather Map New forecast layout! Learn more

10-Day Weather Forecast

Advertisements
Track Severe Weather on mobile